Time;durP1;ratioP1;P1;durP2;ratioP2;P2;SDS_P1;SDS_P2;PMS_P1;PMS_P2;Temp;Humidity;BMP_temperature;BMP_pressure;BME280_temperature;BME280_humidity;BME280_pressure;Samples;Min_cycle;Max_cycle;Signal;HPM_P1;HPM_P2
2023/02/06 00:00:50;;;;;;;48.37;7.47;;;5.60;99.90;;;;;;6319424;22;37867;-79
2023/02/06 00:03:16;;;;;;;31.77;6.70;;;5.60;99.90;;;;;;6287382;22;38564;-79
2023/02/06 00:05:42;;;;;;;41.10;8.27;;;5.60;99.90;;;;;;6271170;22;36328;-80
2023/02/06 00:08:10;;;;;;;36.67;5.97;;;5.60;99.90;;;;;;6259450;22;39556;-80
2023/02/06 00:10:36;;;;;;;42.63;5.80;;;5.50;99.90;;;;;;6289844;22;38134;-80
2023/02/06 00:13:02;;;;;;;33.70;5.27;;;5.50;99.90;;;;;;6252658;22;37852;-80
2023/02/06 00:15:29;;;;;;;47.77;6.70;;;5.50;99.90;;;;;;6287871;22;36882;-80
2023/02/06 00:17:55;;;;;;;34.10;5.23;;;5.50;99.90;;;;;;6263751;22;38317;-80
2023/02/06 00:20:21;;;;;;;39.23;6.07;;;5.60;99.90;;;;;;6288556;22;37515;-80
2023/02/06 00:22:47;;;;;;;39.87;6.13;;;5.50;99.90;;;;;;6289969;22;37588;-80
2023/02/06 00:25:13;;;;;;;40.93;4.97;;;5.50;99.90;;;;;;6256090;22;35778;-79
2023/02/06 00:27:39;;;;;;;44.43;7.87;;;5.50;99.90;;;;;;6293693;22;40033;-79
2023/02/06 00:30:06;;;;;;;36.33;5.33;;;5.50;99.90;;;;;;6263525;22;37251;-81
2023/02/06 00:32:33;;;;;;;37.23;6.00;;;5.50;99.90;;;;;;6293977;22;36901;-79
2023/02/06 00:35:00;;;;;;;36.30;5.70;;;5.50;99.90;;;;;;6293671;22;37293;-80
2023/02/06 00:37:29;;;;;;;42.60;6.00;;;5.50;99.90;;;;;;6290246;22;39105;-80
2023/02/06 00:39:55;;;;;;;32.97;6.07;;;5.50;99.90;;;;;;6268851;22;37171;-80
2023/02/06 00:42:21;;;;;;;47.93;6.27;;;5.50;99.90;;;;;;6262470;22;36371;-80
2023/02/06 00:44:47;;;;;;;37.27;5.87;;;5.50;99.90;;;;;;6286461;22;37187;-80
2023/02/06 00:47:13;;;;;;;30.23;4.87;;;5.50;99.90;;;;;;6288015;22;39227;-80
2023/02/06 00:49:39;;;;;;;45.93;8.20;;;5.50;99.90;;;;;;6264036;22;37170;-79
2023/02/06 00:52:06;;;;;;;39.27;6.20;;;5.50;99.90;;;;;;6260052;22;37962;-79
2023/02/06 00:54:32;;;;;;;46.10;5.93;;;5.50;99.90;;;;;;6289799;22;38301;-79
2023/02/06 00:56:58;;;;;;;36.77;5.63;;;5.50;99.90;;;;;;6265044;22;37409;-79
2023/02/06 00:59:24;;;;;;;38.83;6.73;;;5.40;99.90;;;;;;6256434;22;37349;-80
2023/02/06 01:01:50;;;;;;;38.50;6.43;;;5.40;99.90;;;;;;6259853;22;36950;-80
2023/02/06 01:04:16;;;;;;;39.70;7.43;;;5.40;99.90;;;;;;6259070;22;36218;-80
2023/02/06 01:06:42;;;;;;;34.43;5.10;;;5.50;99.90;;;;;;6295084;22;38686;-80
2023/02/06 01:09:09;;;;;;;43.47;5.87;;;5.40;99.90;;;;;;6296398;22;37064;-79
2023/02/06 01:11:35;;;;;;;30.33;5.63;;;5.50;99.90;;;;;;6322394;22;38172;-79
2023/02/06 01:14:01;;;;;;;31.83;6.53;;;5.40;99.90;;;;;;6295326;22;39060;-80
2023/02/06 01:16:27;;;;;;;31.47;6.03;;;5.40;99.90;;;;;;6322951;22;48254;-80
2023/02/06 01:18:54;;;;;;;38.47;6.40;;;5.40;99.90;;;;;;6299140;22;38303;-80
2023/02/06 01:21:23;;;;;;;42.53;6.33;;;5.40;99.90;;;;;;6322357;22;37695;-80
2023/02/06 01:23:51;;;;;;;46.60;5.83;;;5.40;99.90;;;;;;6295423;22;36603;-80
2023/02/06 01:26:22;;;;;;;34.20;5.20;;;5.40;99.90;;;;;;6296224;22;39723;-79
2023/02/06 01:28:48;;;;;;;31.27;5.27;;;5.40;99.90;;;;;;6297082;22;37250;-80
2023/02/06 01:31:26;;;;;;;27.30;4.87;;;5.30;99.90;;;;;;6298601;22;36611;-80
2023/02/06 01:33:55;;;;;;;43.17;5.97;;;5.30;99.90;;;;;;6327176;22;38089;-79
2023/02/06 01:36:21;;;;;;;41.67;6.00;;;5.30;99.90;;;;;;6291879;22;38534;-79
2023/02/06 01:38:48;;;;;;;35.67;6.10;;;5.30;99.90;;;;;;6328510;22;38099;-80
2023/02/06 01:41:16;;;;;;;27.20;5.57;;;5.30;99.90;;;;;;6297952;22;37893;-80
2023/02/06 01:43:46;;;;;;;40.27;5.43;;;5.30;99.90;;;;;;6324381;22;37776;-80
2023/02/06 01:46:13;;;;;;;42.43;5.47;;;5.30;99.90;;;;;;6327033;22;40156;-80
2023/02/06 01:48:52;;;;;;;38.30;5.60;;;5.40;99.90;;;;;;6300879;22;37252;-79
2023/02/06 01:51:22;;;;;;;33.27;5.47;;;5.40;99.90;;;;;;6326216;22;38241;-80
2023/02/06 01:53:54;;;;;;;39.73;5.37;;;5.40;99.90;;;;;;6302238;22;35978;-80
2023/02/06 01:56:22;;;;;;;31.92;5.60;;;5.40;99.90;;;;;;6304777;22;37404;-80
2023/02/06 01:58:52;;;;;;;37.10;6.23;;;5.40;99.90;;;;;;6303188;22;36883;-79
2023/02/06 02:04:01;;;;;;;29.23;6.03;;;5.30;99.90;;;;;;6253278;22;20021;-79
2023/02/06 02:06:27;;;;;;;;;;;5.40;99.90;;;;;;6250566;22;47024;-79
2023/02/06 02:08:55;;;;;;;48.90;5.37;;;5.30;99.90;;;;;;6248358;22;38561;-79
2023/02/06 02:11:34;;;;;;;31.33;5.67;;;5.40;99.90;;;;;;6272308;22;37824;-80
2023/02/06 02:14:03;;;;;;;33.13;4.83;;;5.30;99.90;;;;;;6251542;22;38086;-81
2023/02/06 02:16:56;;;;;;;38.43;6.20;;;5.30;99.90;;;;;;6209774;22;47539;-80
2023/02/06 02:20:00;;;;;;;37.55;5.35;;;5.20;99.90;;;;;;6277690;22;38950;-80
2023/02/06 02:22:57;;;;;;;41.77;5.40;;;5.20;99.90;;;;;;6241570;22;36308;-80
2023/02/06 02:25:35;;;;;;;42.47;5.03;;;5.10;99.90;;;;;;6243800;22;38670;-80
2023/02/06 02:28:19;;;;;;;39.37;4.93;;;5.20;99.90;;;;;;6250770;22;40043;-80
2023/02/06 02:31:10;;;;;;;52.47;5.77;;;5.20;99.90;;;;;;6251636;22;37152;-80
2023/02/06 02:33:45;;;;;;;28.80;5.37;;;5.20;99.90;;;;;;6251651;22;46999;-80
2023/02/06 02:36:34;;;;;;;41.20;6.80;;;5.10;99.90;;;;;;6247938;22;37660;-80
2023/02/06 02:39:23;;;;;;;43.87;6.27;;;5.10;99.90;;;;;;6281069;22;39003;-80
2023/02/06 02:42:12;;;;;;;45.70;5.63;;;5.10;99.90;;;;;;6251683;22;46993;-79
2023/02/06 02:44:48;;;;;;;36.93;4.97;;;5.00;99.90;;;;;;6243841;22;48248;-79
2023/02/06 02:47:18;;;;;;;40.47;6.53;;;5.00;99.90;;;;;;6282685;22;37111;-79
2023/02/06 02:49:51;;;;;;;27.03;5.83;;;5.00;99.90;;;;;;6283519;22;39382;-80
2023/02/06 02:52:18;;;;;;;29.67;6.40;;;5.00;99.90;;;;;;6253268;22;38723;-80
2023/02/06 02:54:44;;;;;;;30.33;5.00;;;4.90;99.90;;;;;;6255069;22;38461;-80
2023/02/06 02:57:19;;;;;;;34.13;5.90;;;4.80;99.90;;;;;;6252440;22;38124;-80
2023/02/06 02:59:47;;;;;;;30.97;5.27;;;4.70;99.90;;;;;;6281502;22;39171;-79
2023/02/06 03:02:27;;;;;;;33.97;4.47;;;4.70;99.90;;;;;;6256188;22;37651;-80
2023/02/06 03:05:06;;;;;;;30.70;4.47;;;4.70;99.90;;;;;;6253686;22;36587;-80
2023/02/06 03:07:52;;;;;;;40.70;5.93;;;4.60;99.90;;;;;;6247933;22;46911;-79
2023/02/06 03:10:53;;;;;;;39.23;5.63;;;4.60;99.90;;;;;;6246058;22;38741;-80
2023/02/06 03:13:31;;;;;;;28.70;4.47;;;4.60;99.90;;;;;;6230959;22;39535;-79
2023/02/06 03:16:01;;;;;;;35.13;5.67;;;4.60;99.90;;;;;;6249678;22;36212;-78
2023/02/06 03:18:40;;;;;;;41.23;5.40;;;4.60;99.90;;;;;;6277966;22;47401;-79
2023/02/06 03:21:10;;;;;;;31.20;5.57;;;4.50;99.90;;;;;;6252289;22;39785;-79
2023/02/06 03:23:40;;;;;;;31.40;5.10;;;4.60;99.90;;;;;;6253171;22;38963;-79
2023/02/06 03:26:12;;;;;;;36.53;5.40;;;4.60;99.90;;;;;;6274331;22;37958;-80
2023/02/06 03:28:43;;;;;;;26.77;4.65;;;4.60;99.90;;;;;;6275522;22;37131;-80
2023/02/06 03:31:13;;;;;;;31.50;5.13;;;4.60;99.90;;;;;;6241542;22;38864;-79
2023/02/06 03:33:47;;;;;;;36.07;6.33;;;4.60;99.90;;;;;;6279681;22;39877;-80
2023/02/06 03:36:16;;;;;;;27.40;5.07;;;4.50;99.90;;;;;;6246313;22;39291;-79
2023/02/06 03:38:48;;;;;;;31.57;5.43;;;4.50;99.90;;;;;;6284678;22;37638;-80
2023/02/06 03:41:16;;;;;;;46.78;6.22;;;4.50;99.90;;;;;;6252331;22;38748;-80
2023/02/06 03:43:45;;;;;;;40.50;4.80;;;4.50;99.90;;;;;;6256302;22;37271;-80
2023/02/06 03:46:13;;;;;;;42.67;5.80;;;4.50;99.90;;;;;;6251713;22;36843;-79
2023/02/06 03:48:43;;;;;;;32.07;4.70;;;4.60;99.90;;;;;;6279728;22;38175;-80
2023/02/06 03:51:23;;;;;;;34.43;5.80;;;4.60;99.90;;;;;;6252546;22;40116;-80
2023/02/06 03:53:53;;;;;;;31.00;5.00;;;4.60;99.90;;;;;;6282877;22;38919;-79
2023/02/06 03:56:27;;;;;;;37.97;5.17;;;4.60;99.90;;;;;;6279157;22;37957;-80
2023/02/06 03:58:53;;;;;;;42.27;6.50;;;4.50;99.90;;;;;;6284098;22;36587;-80
2023/02/06 04:01:20;;;;;;;27.33;4.67;;;4.50;99.90;;;;;;6250562;22;40810;-80
2023/02/06 04:03:49;;;;;;;34.67;4.77;;;4.50;99.90;;;;;;6246901;22;37131;-80
2023/02/06 04:06:15;;;;;;;44.80;5.30;;;4.50;99.90;;;;;;6250007;22;40138;-80
2023/02/06 04:08:41;;;;;;;35.83;5.27;;;4.50;99.90;;;;;;6252385;22;36021;-80
2023/02/06 04:11:08;;;;;;;30.47;5.80;;;4.50;99.90;;;;;;6251806;22;40090;-80
2023/02/06 04:13:34;;;;;;;33.47;4.27;;;4.40;99.90;;;;;;6278841;22;37289;-80
2023/02/06 04:16:01;;;;;;;33.90;4.73;;;4.40;99.90;;;;;;6252538;22;38203;-80
2023/02/06 04:18:27;;;;;;;37.47;6.43;;;4.30;99.90;;;;;;6246409;22;47578;-80
2023/02/06 04:20:53;;;;;;;38.10;5.00;;;4.20;99.90;;;;;;6252818;22;39531;-80
2023/02/06 04:23:20;;;;;;;31.00;4.73;;;4.20;99.90;;;;;;6250806;22;39932;-80
2023/02/06 04:25:47;;;;;;;40.63;5.20;;;4.10;99.90;;;;;;6252615;22;37838;-80
2023/02/06 04:28:13;;;;;;;35.03;6.47;;;4.20;99.90;;;;;;6280416;22;37099;-79
2023/02/06 04:30:39;;;;;;;30.53;4.67;;;4.10;99.90;;;;;;6247974;22;38485;-80
2023/02/06 04:33:05;;;;;;;27.50;3.93;;;4.10;99.90;;;;;;6245061;22;39670;-80
2023/02/06 04:35:31;;;;;;;31.10;5.13;;;4.10;99.90;;;;;;6249147;22;39523;-79
2023/02/06 04:37:57;;;;;;;35.00;4.97;;;4.00;99.90;;;;;;6280709;22;37858;-80
2023/02/06 04:40:23;;;;;;;34.77;4.90;;;4.00;99.90;;;;;;6245788;22;37959;-80
2023/02/06 04:42:50;;;;;;;34.87;5.17;;;4.00;99.90;;;;;;6248228;22;37226;-80
2023/02/06 04:45:16;;;;;;;35.50;5.83;;;3.90;99.90;;;;;;6270626;22;38216;-80
2023/02/06 04:47:42;;;;;;;34.97;5.90;;;3.90;99.90;;;;;;6249175;22;36614;-80
2023/02/06 04:50:09;;;;;;;38.37;5.63;;;3.90;99.90;;;;;;6244356;22;37517;-80
2023/02/06 04:52:35;;;;;;;26.00;4.57;;;3.80;99.90;;;;;;6245892;22;39078;-80
2023/02/06 04:55:01;;;;;;;36.70;5.23;;;3.80;99.90;;;;;;6278959;22;37845;-80
2023/02/06 04:57:27;;;;;;;36.67;6.30;;;3.70;99.90;;;;;;6251756;22;46839;-80
2023/02/06 04:59:54;;;;;;;26.07;4.07;;;3.70;99.90;;;;;;6245801;22;39446;-80
2023/02/06 05:02:20;;;;;;;35.00;4.80;;;3.70;99.90;;;;;;6250808;22;39036;-79
2023/02/06 05:04:46;;;;;;;36.83;7.53;;;3.70;99.90;;;;;;6254365;22;39238;-81
2023/02/06 05:07:12;;;;;;;25.87;4.27;;;3.70;99.90;;;;;;6254856;22;37296;-80
2023/02/06 05:09:38;;;;;;;35.50;4.53;;;3.60;99.90;;;;;;6255767;22;37859;-80
2023/02/06 05:12:05;;;;;;;48.53;5.80;;;3.50;99.90;;;;;;6284400;22;38784;-81
2023/02/06 05:14:31;;;;;;;34.77;4.80;;;3.50;99.90;;;;;;6254237;22;39511;-80
2023/02/06 05:16:57;;;;;;;26.37;4.93;;;3.40;99.90;;;;;;6252040;22;36355;-80
2023/02/06 05:19:23;;;;;;;32.70;4.37;;;3.40;99.90;;;;;;6278846;22;39651;-79
2023/02/06 05:21:50;;;;;;;28.10;4.50;;;3.40;99.90;;;;;;6252570;22;38329;-80
2023/02/06 05:24:16;;;;;;;40.13;6.23;;;3.40;99.90;;;;;;6250640;22;38322;-81
2023/02/06 05:26:42;;;;;;;44.63;5.23;;;3.40;99.90;;;;;;6276157;22;37143;-80
2023/02/06 05:29:08;;;;;;;36.07;4.47;;;3.40;99.90;;;;;;6247640;22;39118;-80
2023/02/06 05:31:35;;;;;;;35.70;4.83;;;3.40;99.90;;;;;;6249479;22;38460;-80
2023/02/06 05:34:01;;;;;;;41.87;5.30;;;3.50;99.90;;;;;;6252357;22;37966;-80
2023/02/06 05:36:28;;;;;;;37.83;4.70;;;3.50;99.90;;;;;;6250545;22;46914;-78
2023/02/06 05:38:54;;;;;;;22.80;4.67;;;3.40;99.90;;;;;;6257141;22;39723;-78
2023/02/06 05:41:20;;;;;;;27.57;3.73;;;3.50;99.90;;;;;;6279942;22;38837;-78
2023/02/06 05:43:46;;;;;;;36.13;4.87;;;3.40;99.90;;;;;;6257618;22;37480;-78
2023/02/06 05:46:13;;;;;;;35.53;4.70;;;3.30;99.90;;;;;;6281734;22;37537;-78
2023/02/06 05:48:39;;;;;;;32.90;4.43;;;3.20;99.90;;;;;;6284002;22;38791;-80
2023/02/06 05:51:06;;;;;;;25.10;4.20;;;3.10;99.90;;;;;;6249868;22;36914;-81
2023/02/06 05:53:32;;;;;;;29.77;4.27;;;3.00;99.90;;;;;;6248470;22;37443;-78
2023/02/06 05:55:58;;;;;;;22.93;4.13;;;2.90;99.90;;;;;;6257513;22;37876;-79
2023/02/06 05:58:24;;;;;;;32.10;3.97;;;2.90;99.90;;;;;;6275518;22;39875;-79
2023/02/06 06:00:51;;;;;;;35.53;4.20;;;2.90;99.90;;;;;;6254142;22;37250;-79
2023/02/06 06:03:18;;;;;;;28.37;4.40;;;2.90;99.90;;;;;;6247741;22;37813;-79
2023/02/06 06:05:44;;;;;;;34.13;4.97;;;3.00;99.90;;;;;;6255313;22;36380;-79
2023/02/06 06:08:11;;;;;;;40.63;5.83;;;3.00;99.90;;;;;;6246810;22;38583;-79
2023/02/06 06:10:37;;;;;;;25.93;4.90;;;3.20;99.90;;;;;;6245419;22;37421;-78
2023/02/06 06:13:03;;;;;;;32.57;6.50;;;3.20;99.90;;;;;;6249015;22;36545;-80
2023/02/06 06:15:29;;;;;;;40.37;6.27;;;3.30;99.90;;;;;;6259817;22;38178;-79
2023/02/06 06:17:55;;;;;;;41.87;9.63;;;3.40;99.90;;;;;;6284574;22;38616;-78
2023/02/06 06:20:22;;;;;;;36.33;8.23;;;3.40;99.90;;;;;;6255625;22;37546;-79
2023/02/06 06:22:48;;;;;;;44.73;8.80;;;3.50;99.90;;;;;;6258285;22;37799;-80
2023/02/06 06:25:14;;;;;;;37.17;7.83;;;3.50;99.90;;;;;;6253690;22;35992;-79
2023/02/06 06:27:40;;;;;;;38.63;6.40;;;3.50;99.90;;;;;;6284440;22;39916;-79
2023/02/06 06:30:07;;;;;;;43.60;6.87;;;3.60;99.90;;;;;;6247578;22;39022;-82
2023/02/06 06:32:33;;;;;;;32.07;6.03;;;3.60;99.90;;;;;;6256508;22;36572;-80
2023/02/06 06:35:00;;;;;;;46.23;6.20;;;3.60;99.90;;;;;;6255521;22;37278;-80
2023/02/06 06:37:26;;;;;;;42.20;6.13;;;3.60;99.90;;;;;;6259567;22;39459;-80
2023/02/06 06:39:52;;;;;;;33.70;6.50;;;3.60;99.90;;;;;;6258476;22;38544;-79
2023/02/06 06:42:18;;;;;;;31.80;4.93;;;3.70;99.90;;;;;;6253450;22;39627;-80
2023/02/06 06:44:44;;;;;;;33.00;5.10;;;3.70;99.90;;;;;;6256567;22;37175;-79
2023/02/06 06:47:11;;;;;;;30.13;5.10;;;3.70;99.90;;;;;;6255640;22;37848;-80
2023/02/06 06:49:38;;;;;;;28.50;5.70;;;3.70;99.90;;;;;;6263087;22;37282;-80
2023/02/06 06:52:04;;;;;;;38.13;5.80;;;3.70;99.90;;;;;;6239903;22;36674;-80
2023/02/06 06:54:30;;;;;;;35.83;5.40;;;3.70;99.90;;;;;;6238630;22;36241;-80
2023/02/06 06:56:57;;;;;;;29.80;4.90;;;3.70;99.90;;;;;;6253724;22;39218;-81
2023/02/06 06:59:23;;;;;;;40.70;6.00;;;3.80;99.90;;;;;;6250061;22;38615;-80
2023/02/06 07:01:51;;;;;;;28.17;4.53;;;3.90;99.90;;;;;;6256085;22;36126;-80
2023/02/06 07:04:19;;;;;;;35.87;6.07;;;4.00;99.90;;;;;;6258067;22;38278;-80
2023/02/06 07:06:46;;;;;;;33.20;5.70;;;4.10;99.90;;;;;;6291460;22;38971;-81
2023/02/06 07:09:12;;;;;;;27.60;6.63;;;4.10;99.90;;;;;;6267350;22;38936;-80
2023/02/06 07:11:39;;;;;;;29.80;5.47;;;4.00;99.90;;;;;;6259008;22;37054;-80
2023/02/06 07:14:05;;;;;;;44.50;6.93;;;4.00;99.90;;;;;;6261363;22;36474;-81
2023/02/06 07:16:31;;;;;;;37.93;6.37;;;3.90;99.90;;;;;;6293354;22;39425;-79
2023/02/06 07:18:57;;;;;;;39.03;6.70;;;3.80;99.90;;;;;;6263992;22;37177;-79
2023/02/06 07:21:24;;;;;;;39.37;5.33;;;3.70;99.90;;;;;;6262473;22;38208;-80
2023/02/06 07:23:51;;;;;;;36.03;5.57;;;3.60;99.90;;;;;;6256883;22;37366;-80
2023/02/06 07:26:17;;;;;;;45.13;6.30;;;3.50;99.90;;;;;;6275931;22;39839;-79
2023/02/06 07:28:43;;;;;;;34.90;5.70;;;3.40;99.90;;;;;;6246184;22;37034;-79
2023/02/06 07:31:10;;;;;;;31.17;4.60;;;3.40;99.90;;;;;;6275258;22;37555;-79
2023/02/06 07:33:36;;;;;;;31.70;4.80;;;3.30;99.90;;;;;;6250882;22;37273;-79
2023/02/06 07:36:02;;;;;;;39.77;5.43;;;3.30;99.90;;;;;;6251518;22;40045;-79
2023/02/06 07:38:28;;;;;;;31.90;5.10;;;3.30;99.90;;;;;;6251044;22;47117;-78
2023/02/06 07:41:00;;;;;;;29.93;5.03;;;3.30;99.90;;;;;;6260367;22;36655;-78
2023/02/06 07:43:26;;;;;;;29.33;5.13;;;3.20;99.90;;;;;;6254100;22;38742;-79
2023/02/06 07:45:52;;;;;;;36.07;5.97;;;3.20;99.90;;;;;;6260681;22;39067;-79
2023/02/06 07:48:19;;;;;;;37.53;5.77;;;3.20;99.90;;;;;;6253711;22;38128;-79
2023/02/06 07:50:46;;;;;;;30.77;4.77;;;3.20;99.90;;;;;;6273779;22;38051;-79
2023/02/06 07:53:12;;;;;;;34.63;5.70;;;3.30;99.90;;;;;;6247010;22;36500;-79
2023/02/06 07:55:38;;;;;;;26.17;5.10;;;3.30;99.90;;;;;;6255349;22;39603;-79
2023/02/06 07:58:10;;;;;;;27.50;4.87;;;3.30;99.90;;;;;;6250686;22;37624;-79
2023/02/06 08:00:38;;;;;;;29.08;5.13;;;3.40;99.90;;;;;;6259121;22;37283;-79
2023/02/06 08:03:05;;;;;;;34.63;5.60;;;3.40;99.90;;;;;;6257985;22;36570;-79
2023/02/06 08:05:32;;;;;;;25.03;7.77;;;3.40;99.90;;;;;;6249666;22;40310;-79
2023/02/06 08:07:59;;;;;;;23.53;6.23;;;3.50;99.90;;;;;;6268967;22;38335;-79
2023/02/06 08:10:25;;;;;;;31.60;6.17;;;3.50;99.90;;;;;;6240703;22;37944;-78
2023/02/06 08:12:51;;;;;;;27.97;6.00;;;3.50;99.90;;;;;;6240373;22;36104;-78
2023/02/06 08:15:17;;;;;;;37.00;7.47;;;3.60;99.90;;;;;;6265673;22;38751;-78
2023/02/06 08:17:44;;;;;;;34.73;6.53;;;3.60;99.90;;;;;;6244340;22;40038;-78
2023/02/06 08:20:11;;;;;;;40.43;9.13;;;3.60;99.90;;;;;;6241503;22;37136;-79
2023/02/06 08:22:38;;;;;;;45.67;11.97;;;3.70;99.90;;;;;;6242832;22;37849;-79
2023/02/06 08:25:05;;;;;;;44.53;11.13;;;3.70;99.90;;;;;;6240840;22;39007;-79
2023/02/06 08:27:31;;;;;;;42.90;9.40;;;3.80;99.90;;;;;;6240378;22;47303;-79
2023/02/06 08:29:58;;;;;;;47.57;9.83;;;3.90;99.90;;;;;;6264432;22;37316;-79
2023/02/06 08:32:28;;;;;;;38.73;8.97;;;4.00;99.90;;;;;;6242777;22;38445;-78
2023/02/06 08:34:54;;;;;;;43.60;10.17;;;4.10;99.90;;;;;;6243674;22;37409;-80
2023/02/06 08:37:20;;;;;;;49.77;12.03;;;4.10;99.90;;;;;;6272515;22;38626;-80
2023/02/06 08:39:46;;;;;;;46.87;13.47;;;4.10;99.90;;;;;;6248729;22;37323;-80
2023/02/06 08:42:12;;;;;;;44.33;10.90;;;4.10;99.90;;;;;;6244138;22;38207;-80
2023/02/06 08:44:38;;;;;;;35.83;9.63;;;4.00;99.90;;;;;;6242750;22;39634;-79
2023/02/06 08:47:05;;;;;;;34.17;8.93;;;4.10;99.90;;;;;;6243812;22;38921;-81
2023/02/06 08:49:31;;;;;;;38.33;8.90;;;4.20;99.90;;;;;;6237171;22;38725;-79
2023/02/06 08:51:58;;;;;;;33.73;10.17;;;4.20;99.90;;;;;;6244813;22;37232;-79
2023/02/06 08:54:24;;;;;;;39.83;10.37;;;4.20;99.90;;;;;;6268057;22;38696;-80
2023/02/06 08:56:51;;;;;;;56.03;10.17;;;4.20;99.90;;;;;;6251897;22;38523;-79
2023/02/06 08:59:19;;;;;;;35.07;8.57;;;4.30;99.90;;;;;;6272925;22;37792;-79
2023/02/06 09:01:45;;;;;;;30.37;7.33;;;4.30;99.90;;;;;;6249497;22;38746;-81
2023/02/06 09:04:13;;;;;;;46.57;11.10;;;4.40;99.90;;;;;;6247842;22;40498;-80
2023/02/06 09:06:43;;;;;;;57.90;12.33;;;4.40;99.90;;;;;;6246591;22;38995;-80
2023/02/06 09:09:11;;;;;;;41.87;11.00;;;4.50;99.90;;;;;;6254070;22;36732;-80
2023/02/06 09:12:02;;;;;;;33.93;9.13;;;4.50;99.90;;;;;;6254621;22;38052;-81
2023/02/06 09:14:31;;;;;;;39.80;10.03;;;4.50;99.90;;;;;;6244958;22;48965;-81
2023/02/06 09:16:57;;;;;;;48.47;10.07;;;4.50;99.90;;;;;;6246279;22;39024;-80
2023/02/06 09:19:24;;;;;;;36.40;9.17;;;4.50;99.90;;;;;;6248958;22;39285;-81
2023/02/06 09:21:51;;;;;;;46.40;12.40;;;4.50;99.90;;;;;;6252706;22;36623;-80
2023/02/06 09:24:18;;;;;;;42.13;10.10;;;4.50;99.90;;;;;;6245707;22;37728;-80
2023/02/06 09:26:45;;;;;;;39.40;9.83;;;4.40;99.90;;;;;;6257865;22;38114;-80
2023/02/06 09:29:12;;;;;;;33.33;8.80;;;4.50;99.90;;;;;;6254093;22;38409;-80
2023/02/06 09:31:40;;;;;;;46.77;8.43;;;4.50;99.90;;;;;;6251663;22;37502;-80
2023/02/06 09:34:07;;;;;;;53.17;11.47;;;4.60;99.90;;;;;;6248857;22;38140;-80
2023/02/06 09:36:36;;;;;;;40.47;9.40;;;4.60;99.90;;;;;;6252923;22;37214;-80
2023/02/06 09:39:07;;;;;;;36.27;7.53;;;4.80;99.90;;;;;;6245512;22;37874;-80
2023/02/06 09:41:39;;;;;;;45.70;7.87;;;4.90;99.90;;;;;;6244153;22;36347;-79
2023/02/06 09:44:12;;;;;;;37.53;8.52;;;5.00;99.90;;;;;;6241555;22;40862;-79
2023/02/06 09:46:50;;;;;;;31.73;6.83;;;5.10;99.90;;;;;;6253803;22;38168;-79
2023/02/06 09:49:48;;;;;;;68.20;9.03;;;5.10;99.90;;;;;;6250239;22;38428;-80
2023/02/06 09:53:03;;;;;;;44.03;7.67;;;5.20;99.90;;;;;;6249404;22;38261;-81
2023/02/06 09:55:40;;;;;;;55.73;8.70;;;5.30;99.90;;;;;;6184085;22;46890;-80
2023/02/06 09:58:15;;;;;;;37.33;6.83;;;5.40;99.90;;;;;;6250681;22;40531;-80
2023/02/06 10:01:04;;;;;;;38.90;8.60;;;5.50;99.90;;;;;;6274036;22;36732;-80
2023/02/06 10:03:50;;;;;;;41.83;8.23;;;5.50;99.90;;;;;;6248000;22;47011;-81
2023/02/06 10:06:19;;;;;;;36.23;7.30;;;5.60;99.90;;;;;;6249612;22;37552;-80
2023/02/06 10:09:01;;;;;;;45.27;8.67;;;5.70;99.90;;;;;;6257479;22;38932;-80
2023/02/06 10:11:37;;;;;;;45.42;8.18;;;5.80;99.90;;;;;;6251045;22;48767;-81
2023/02/06 10:14:17;;;;;;;48.67;9.20;;;5.90;99.90;;;;;;6251652;22;36316;-81
2023/02/06 10:16:53;;;;;;;45.07;9.77;;;5.90;99.90;;;;;;6258847;22;38537;-80
2023/02/06 10:19:42;;;;;;;33.63;8.70;;;6.00;99.90;;;;;;6282364;22;37583;-81
2023/02/06 10:22:32;;;;;;;36.97;10.03;;;6.20;99.90;;;;;;6282831;22;39645;-80
2023/02/06 10:25:31;;;;;;;42.23;8.37;;;6.50;99.90;;;;;;6257463;22;37045;-81
2023/02/06 10:28:06;;;;;;;45.13;8.57;;;6.70;99.90;;;;;;6224713;22;47269;-81
2023/02/06 10:30:52;;;;;;;38.27;8.37;;;6.70;99.90;;;;;;6255806;22;48545;-80
2023/02/06 10:33:29;;;;;;;38.83;7.30;;;6.70;99.90;;;;;;6258083;22;37455;-81
2023/02/06 10:36:20;;;;;;;38.30;6.77;;;6.90;99.90;;;;;;6277348;22;35974;-80
2023/02/06 10:39:23;;;;;;;34.47;8.17;;;6.80;99.90;;;;;;6250503;22;47836;-80
2023/02/06 10:42:24;;;;;;;45.20;5.68;;;6.80;99.90;;;;;;6222800;22;47478;-81
2023/02/06 10:45:31;;;;;;;40.40;6.33;;;6.90;99.90;;;;;;6245966;22;48489;-81
2023/02/06 10:48:09;;;;;;;35.93;6.33;;;7.00;99.90;;;;;;6205705;22;48395;-81
2023/02/06 10:50:46;;;;;;;33.13;6.20;;;7.10;99.90;;;;;;6259177;22;46847;-81
2023/02/06 10:53:21;;;;;;;35.87;6.00;;;7.20;99.90;;;;;;6267431;22;38415;-81
2023/02/06 10:55:54;;;;;;;39.20;6.17;;;7.40;99.90;;;;;;6263947;22;36509;-81
2023/02/06 10:58:43;;;;;;;29.43;5.57;;;7.60;99.90;;;;;;6253938;22;36053;-80
2023/02/06 11:01:14;;;;;;;27.73;5.30;;;7.60;99.90;;;;;;6259562;22;40149;-81
2023/02/06 11:03:51;;;;;;;29.00;4.93;;;7.80;99.90;;;;;;6255342;22;38495;-81
2023/02/06 11:06:24;;;;;;;35.43;5.00;;;7.70;99.90;;;;;;6259959;22;37829;-81
2023/02/06 11:08:50;;;;;;;27.00;4.83;;;7.70;99.90;;;;;;6257135;22;37723;-80
2023/02/06 11:11:16;;;;;;;26.80;4.10;;;7.60;99.90;;;;;;6250880;22;37412;-81
2023/02/06 11:13:48;;;;;;;25.77;4.10;;;7.60;99.90;;;;;;6282517;22;38806;-81
2023/02/06 11:16:24;;;;;;;28.25;4.32;;;7.60;99.90;;;;;;6256521;22;38089;-81
2023/02/06 11:18:52;;;;;;;30.63;4.37;;;7.60;99.90;;;;;;6260597;22;36509;-81
2023/02/06 11:21:50;;;;;;;33.03;4.70;;;7.70;99.90;;;;;;6253115;22;40106;-81
2023/02/06 11:24:22;;;;;;;28.07;4.60;;;7.50;99.90;;;;;;6235931;22;39676;-81
2023/02/06 11:26:58;;;;;;;29.70;4.67;;;7.50;99.90;;;;;;6259929;22;38438;-81
2023/02/06 11:29:42;;;;;;;26.27;4.17;;;7.70;99.90;;;;;;6261660;22;37084;-80
2023/02/06 11:32:35;;;;;;;44.57;8.13;;;7.70;99.90;;;;;;6259239;22;39117;-81
2023/02/06 11:35:16;;;;;;;29.25;5.20;;;7.90;99.90;;;;;;6260887;22;38185;-83
2023/02/06 11:37:42;;;;;;;35.93;4.80;;;8.30;99.90;;;;;;6261643;22;47337;-83
2023/02/06 11:40:17;;;;;;;25.80;4.70;;;8.50;99.90;;;;;;6257902;22;36499;-82
2023/02/06 11:42:45;;;;;;;24.00;4.87;;;8.70;99.90;;;;;;6262139;22;39484;-82
2023/02/06 11:45:30;;;;;;;32.83;4.27;;;8.60;99.90;;;;;;6259126;22;37693;-82
2023/02/06 11:47:57;;;;;;;34.50;5.53;;;8.60;99.90;;;;;;6256533;22;37633;-82
2023/02/06 11:50:32;;;;;;;21.40;4.47;;;8.60;99.90;;;;;;6254346;22;36544;-82
2023/02/06 11:53:10;;;;;;;23.93;5.27;;;8.40;99.90;;;;;;6263722;22;40299;-82
2023/02/06 11:55:38;;;;;;;34.97;5.00;;;8.30;99.90;;;;;;6261378;22;46941;-82
2023/02/06 11:58:12;;;;;;;21.57;4.10;;;8.10;99.90;;;;;;6261029;22;37644;-82
2023/02/06 12:00:54;;;;;;;30.23;4.83;;;8.20;99.90;;;;;;6260956;22;37403;-82
2023/02/06 12:03:29;;;;;;;26.53;5.27;;;8.40;99.90;;;;;;6284398;22;37157;-82
2023/02/06 12:06:03;;;;;;;24.20;3.57;;;8.40;99.90;;;;;;6285556;22;37072;-82
2023/02/06 12:08:53;;;;;;;22.97;3.67;;;8.20;99.90;;;;;;6255272;22;46770;-82
2023/02/06 12:11:22;;;;;;;23.77;3.60;;;8.30;99.90;;;;;;6256383;22;36187;-82
2023/02/06 12:13:59;;;;;;;33.00;4.27;;;8.50;99.90;;;;;;6259188;22;37978;-82
2023/02/06 12:16:28;;;;;;;29.37;3.70;;;8.70;99.90;;;;;;6258662;22;37608;-82
2023/02/06 12:18:58;;;;;;;27.07;4.70;;;8.80;99.90;;;;;;6259585;22;37391;-82
2023/02/06 12:21:37;;;;;;;23.67;4.23;;;8.80;99.90;;;;;;6260411;22;37529;-79
2023/02/06 12:24:41;;;;;;;22.00;3.97;;;9.00;99.90;;;;;;6260499;22;37909;-83
2023/02/06 12:27:34;;;;;;;30.10;3.90;;;9.20;99.90;;;;;;6284707;22;37869;-81
2023/02/06 12:30:28;;;;;;;24.37;4.67;;;9.30;99.90;;;;;;6277961;22;36874;-82
2023/02/06 12:33:10;;;;;;;17.93;3.67;;;9.40;99.90;;;;;;6258137;22;48426;-81
2023/02/06 12:35:43;;;;;;;30.43;4.53;;;9.50;99.90;;;;;;6251317;22;48909;-80
2023/02/06 12:38:49;;;;;;;22.20;4.00;;;9.50;99.90;;;;;;6246164;22;20061;-81
2023/02/06 12:41:39;;;;;;;29.98;4.07;;;9.50;99.90;;;;;;6298082;22;37961;-81
2023/02/06 12:44:13;;;;;;;29.80;4.37;;;9.60;99.90;;;;;;6269940;22;37040;-80
2023/02/06 12:46:42;;;;;;;25.23;4.20;;;9.80;99.90;;;;;;6298608;22;39321;-80
2023/02/06 12:49:26;;;;;;;24.93;4.83;;;9.80;99.90;;;;;;6293511;22;38588;-81
2023/02/06 12:52:03;;;;;;;26.63;4.20;;;9.70;99.90;;;;;;6264318;22;39249;-80
2023/02/06 12:55:02;;;;;;;20.60;3.53;;;9.60;99.90;;;;;;6259601;22;49449;-81
2023/02/06 12:57:35;;;;;;;24.13;4.50;;;9.70;99.90;;;;;;6271924;22;38666;-81
2023/02/06 13:00:44;;;;;;;21.70;4.00;;;9.70;99.90;;;;;;6266756;22;38814;-81
2023/02/06 13:03:11;;;;;;;27.50;3.60;;;9.50;99.90;;;;;;6265801;22;50127;-81
2023/02/06 13:05:42;;;;;;;25.03;4.70;;;9.40;99.90;;;;;;6275496;22;37836;-80
2023/02/06 13:08:27;;;;;;;28.17;5.43;;;9.30;99.90;;;;;;6270004;22;40255;-81
2023/02/06 13:11:04;;;;;;;20.33;3.30;;;9.40;99.90;;;;;;6241088;22;39456;-81